Time;durP1;ratioP1;P1;durP2;ratioP2;P2;SDS_P1;SDS_P2;PMS_P1;PMS_P2;Temp;Humidity;BMP_temperature;BMP_pressure;BME280_temperature;BME280_humidity;BME280_pressure;Samples;Min_cycle;Max_cycle;Signal;HPM_P1;HPM_P2
2021/07/04 00:00:16;;;;;;;;;;;;;;;;;;5114548;27;19920;-61
2021/07/04 00:02:42;;;;;;;;;;;;;;;;;;5101098;28;19953;-61
2021/07/04 00:05:08;;;;;;;;;;;;;;;;;;5115243;27;19923;-61
2021/07/04 00:07:34;;;;;;;;;;;;;;;;;;5114497;27;19919;-61
2021/07/04 00:10:00;;;;;;;;;;;;;;;;;;5115857;27;19926;-61
2021/07/04 00:12:26;;;;;;;;;;;;;;;;;;5111490;28;20282;-61
2021/07/04 00:14:52;;;;;;;;;;;;;;;;;;5119311;27;19908;-61
2021/07/04 00:17:18;;;;;;;;;;;;;;;;;;5115081;27;20277;-61
2021/07/04 00:19:43;;;;;;;;;;;;;;;;;;5115107;27;19916;-61
2021/07/04 00:22:09;;;;;;;;;;;;;;;;;;5114978;27;20358;-61
2021/07/04 00:24:35;;;;;;;;;;;;;;;;;;5112213;27;19964;-61
2021/07/04 00:27:01;;;;;;;;;;;;;;;;;;5116179;27;19912;-61
2021/07/04 00:29:27;;;;;;;;;;;;;;;;;;5100498;28;19907;-61
2021/07/04 00:31:53;;;;;;;;;;;;;;;;;;5115102;27;19957;-62
2021/07/04 00:34:19;;;;;;;;;;;;;;;;;;5115349;27;19957;-61
2021/07/04 00:36:45;;;;;;;;;;;;;;;;;;5112904;27;19962;-61
2021/07/04 00:39:11;;;;;;;;;;;;;;;;;;5113419;27;20378;-61
2021/07/04 00:41:36;;;;;;;;;;;;;;;;;;5094560;28;19908;-61
2021/07/04 00:44:02;;;;;;;;;;;;;;;;;;5112900;27;19912;-61
2021/07/04 00:46:31;;;;;;;;;;;;;;;;;;5096704;28;19955;-62
2021/07/04 00:48:56;;;;;;;;;;;;;;;;;;5114213;27;19972;-61
2021/07/04 00:51:22;;;;;;;;;;;;;;;;;;5110996;27;20355;-61
2021/07/04 00:53:48;;;;;;;;;;;;;;;;;;5129500;27;19911;-62
2021/07/04 00:56:14;;;;;;;;;;;;;;;;;;5115732;27;19912;-61
2021/07/04 00:58:40;;;;;;;;;;;;;;;;;;5114730;27;19911;-64
2021/07/04 01:01:06;;;;;;;;;;;;;;;;;;5114919;27;19907;-61
2021/07/04 01:03:32;;;;;;;;;;;;;;;;;;5110489;27;19920;-61
2021/07/04 01:05:58;;;;;;;;;;;;;;;;;;5097845;28;20363;-61
2021/07/04 01:08:24;;;;;;;;;;;;;;;;;;5112869;27;20278;-63
2021/07/04 01:10:50;;;;;;;;;;;;;;;;;;5114651;27;19920;-61
2021/07/04 01:13:16;;;;;;;;;;;;;;;;;;5114531;27;19911;-61
2021/07/04 01:15:43;;;;;;;;;;;;;;;;;;5112227;27;19955;-63
2021/07/04 01:18:08;;;;;;;;;;;;;;;;;;5096680;28;19908;-61
2021/07/04 01:20:34;;;;;;;;;;;;;;;;;;5114584;27;19961;-63
2021/07/04 01:23:00;;;;;;;;;;;;;;;;;;5114153;27;20343;-61
2021/07/04 01:25:26;;;;;;;;;;;;;;;;;;5114294;27;20018;-61
2021/07/04 01:27:52;;;;;;;;;;;;;;;;;;5112961;27;20064;-62
2021/07/04 01:30:18;;;;;;;;;;;;;;;;;;5112344;27;19927;-61
2021/07/04 01:32:44;;;;;;;;;;;;;;;;;;5116376;27;19965;-62
2021/07/04 01:35:10;;;;;;;;;;;;;;;;;;5113340;27;19937;-62
2021/07/04 01:37:36;;;;;;;;;;;;;;;;;;5112974;27;19918;-61
2021/07/04 01:40:01;;;;;;;;;;;;;;;;;;5114062;27;19919;-62
2021/07/04 01:42:27;;;;;;;;;;;;;;;;;;5109302;28;20012;-62
2021/07/04 01:44:53;;;;;;;;;;;;;;;;;;5117013;27;20137;-61
2021/07/04 01:47:19;;;;;;;;;;;;;;;;;;5113935;27;19911;-62
2021/07/04 01:49:45;;;;;;;;;;;;;;;;;;5113274;27;19911;-61
2021/07/04 01:52:11;;;;;;;;;;;;;;;;;;5111583;27;20003;-61
2021/07/04 01:54:37;;;;;;;;;;;;;;;;;;5125427;27;19912;-61
2021/07/04 01:57:11;;;;;;;;;;;;;;;;;;5115057;27;19911;-61
2021/07/04 01:59:37;;;;;;;;;;;;;;;;;;5114756;27;20434;-61
2021/07/04 02:02:03;;;;;;;;;;;;;;;;;;5113675;27;20006;-61
2021/07/04 02:04:29;;;;;;;;;;;;;;;;;;5113341;27;19911;-61
2021/07/04 02:06:54;;;;;;;;;;;;;;;;;;5112334;28;20270;-61
2021/07/04 02:09:20;;;;;;;;;;;;;;;;;;5110088;28;19923;-62
2021/07/04 02:11:46;;;;;;;;;;;;;;;;;;5116335;27;20255;-61
2021/07/04 02:14:12;;;;;;;;;;;;;;;;;;5113500;28;19915;-63
2021/07/04 02:16:38;;;;;;;;;;;;;;;;;;5113285;28;19911;-61
2021/07/04 02:19:04;;;;;;;;;;;;;;;;;;5113040;27;19930;-61
2021/07/04 02:21:30;;;;;;;;;;;;;;;;;;5113666;27;20038;-63
2021/07/04 02:23:56;;;;;;;;;;;;;;;;;;5102084;28;19930;-61
2021/07/04 02:26:21;;;;;;;;;;;;;;;;;;5117512;27;19924;-61
2021/07/04 02:28:47;;;;;;;;;;;;;;;;;;5117418;27;20335;-61
2021/07/04 02:31:13;;;;;;;;;;;;;;;;;;5098843;27;19911;-61
2021/07/04 02:33:39;;;;;;;;;;;;;;;;;;5114402;27;20278;-62
2021/07/04 02:36:05;;;;;;;;;;;;;;;;;;5118428;27;19934;-61
2021/07/04 02:38:31;;;;;;;;;;;;;;;;;;5117969;27;19907;-62
2021/07/04 02:40:57;;;;;;;;;;;;;;;;;;5117433;27;19925;-61
2021/07/04 02:43:23;;;;;;;;;;;;;;;;;;5116862;27;20002;-61
2021/07/04 02:45:49;;;;;;;;;;;;;;;;;;5115511;27;20386;-63
2021/07/04 02:48:15;;;;;;;;;;;;;;;;;;5115449;27;19912;-61
2021/07/04 02:50:40;;;;;;;;;;;;;;;;;;5121074;27;20270;-73
2021/07/04 02:53:06;;;;;;;;;;;;;;;;;;5122903;27;19981;-71
2021/07/04 02:55:32;;;;;;;;;;;;;;;;;;5123922;27;19912;-73
2021/07/04 02:57:58;;;;;;;;;;;;;;;;;;5116339;27;19916;-72
2021/07/04 03:00:24;;;;;;;;;;;;;;;;;;5113369;28;19920;-71
2021/07/04 03:02:50;;;;;;;;;;;;;;;;;;5120042;27;19908;-72
2021/07/04 03:05:16;;;;;;;;;;;;;;;;;;5116653;27;20057;-71
2021/07/04 03:07:42;;;;;;;;;;;;;;;;;;5116011;27;20432;-72
2021/07/04 03:10:08;;;;;;;;;;;;;;;;;;5116737;27;19920;-71
2021/07/04 03:12:33;;;;;;;;;;;;;;;;;;5112580;27;20009;-71
2021/07/04 03:14:59;;;;;;;;;;;;;;;;;;5118775;27;19923;-73
2021/07/04 03:17:25;;;;;;;;;;;;;;;;;;5119372;27;19908;-71
2021/07/04 03:19:51;;;;;;;;;;;;;;;;;;5116710;27;19912;-71
2021/07/04 03:22:17;;;;;;;;;;;;;;;;;;5098056;27;20002;-73
2021/07/04 03:24:43;;;;;;;;;;;;;;;;;;5114318;27;19916;-71
2021/07/04 03:27:09;;;;;;;;;;;;;;;;;;5116557;27;19911;-73
2021/07/04 03:29:35;;;;;;;;;;;;;;;;;;5117828;27;19911;-71
2021/07/04 03:32:01;;;;;;;;;;;;;;;;;;5115726;28;19911;-72
2021/07/04 03:34:26;;;;;;;;;;;;;;;;;;5116352;27;19954;-71
2021/07/04 03:36:52;;;;;;;;;;;;;;;;;;5114954;27;19919;-72
2021/07/04 03:39:18;;;;;;;;;;;;;;;;;;5113312;28;19920;-73
2021/07/04 03:41:44;;;;;;;;;;;;;;;;;;5101218;28;19965;-70
2021/07/04 03:44:10;;;;;;;;;;;;;;;;;;5115945;27;19912;-72
2021/07/04 03:46:36;;;;;;;;;;;;;;;;;;5115840;27;19923;-73
2021/07/04 03:49:02;;;;;;;;;;;;;;;;;;5116028;27;19971;-72
2021/07/04 03:51:28;;;;;;;;;;;;;;;;;;5111656;28;20395;-71
2021/07/04 03:53:53;;;;;;;;;;;;;;;;;;5132023;27;20371;-72
2021/07/04 03:56:20;;;;;;;;;;;;;;;;;;5116641;27;19918;-73
2021/07/04 03:58:46;;;;;;;;;;;;;;;;;;5115427;27;20370;-72
2021/07/04 04:01:18;;;;;;;;;;;;;;;;;;5115803;27;19919;-72
2021/07/04 04:03:44;;;;;;;;;;;;;;;;;;5114069;27;19994;-73
2021/07/04 04:06:10;;;;;;;;;;;;;;;;;;5115655;27;20011;-71
2021/07/04 04:08:36;;;;;;;;;;;;;;;;;;5115651;27;20362;-73
2021/07/04 04:11:04;;;;;;;;;;;;;;;;;;5097119;28;19924;-71
2021/07/04 04:13:30;;;;;;;;;;;;;;;;;;5115583;27;20293;-72
2021/07/04 04:15:56;;;;;;;;;;;;;;;;;;5114811;27;19911;-73
2021/07/04 04:18:21;;;;;;;;;;;;;;;;;;5112454;27;19912;-72
2021/07/04 04:20:47;;;;;;;;;;;;;;;;;;5117932;27;19915;-72
2021/07/04 04:23:13;;;;;;;;;;;;;;;;;;5096903;28;19958;-72
2021/07/04 04:25:39;;;;;;;;;;;;;;;;;;5115073;27;19965;-72
2021/07/04 04:28:05;;;;;;;;;;;;;;;;;;5114991;27;20255;-71
2021/07/04 04:30:31;;;;;;;;;;;;;;;;;;5111039;28;19958;-72
2021/07/04 04:32:57;;;;;;;;;;;;;;;;;;5118334;27;19915;-72
2021/07/04 04:35:23;;;;;;;;;;;;;;;;;;5115308;27;19952;-72
2021/07/04 04:37:48;;;;;;;;;;;;;;;;;;5120895;27;19918;-72
2021/07/04 04:40:14;;;;;;;;;;;;;;;;;;5124569;27;20188;-72
2021/07/04 04:42:40;;;;;;;;;;;;;;;;;;5111532;27;19980;-72
2021/07/04 04:45:06;;;;;;;;;;;;;;;;;;5114639;27;20348;-72
2021/07/04 04:47:32;;;;;;;;;;;;;;;;;;5117196;27;19988;-71
2021/07/04 04:49:58;;;;;;;;;;;;;;;;;;5112908;27;20003;-74
2021/07/04 04:52:24;;;;;;;;;;;;;;;;;;5111125;28;19967;-71
2021/07/04 04:54:50;;;;;;;;;;;;;;;;;;5110164;28;19912;-72
2021/07/04 04:57:16;;;;;;;;;;;;;;;;;;5095243;28;20352;-65
2021/07/04 04:59:41;;;;;;;;;;;;;;;;;;5116429;27;20006;-65
2021/07/04 05:02:07;;;;;;;;;;;;;;;;;;5122585;27;19911;-66
2021/07/04 05:04:33;;;;;;;;;;;;;;;;;;5122523;27;19911;-66
2021/07/04 05:06:59;;;;;;;;;;;;;;;;;;5121808;27;19912;-67
2021/07/04 05:09:25;;;;;;;;;;;;;;;;;;5120756;27;20002;-66
2021/07/04 05:11:51;;;;;;;;;;;;;;;;;;5120865;27;20423;-66
2021/07/04 05:14:17;;;;;;;;;;;;;;;;;;5099599;28;19969;-66
2021/07/04 05:16:43;;;;;;;;;;;;;;;;;;5095580;27;19964;-66
2021/07/04 05:19:10;;;;;;;;;;;;;;;;;;5107357;28;19912;-64
2021/07/04 05:21:36;;;;;;;;;;;;;;;;;;5095585;28;19916;-66
2021/07/04 05:24:02;;;;;;;;;;;;;;;;;;5095454;28;20475;-69
2021/07/04 05:26:28;;;;;;;;;;;;;;;;;;5094785;28;20006;-69
2021/07/04 05:28:54;;;;;;;;;;;;;;;;;;5098528;28;20399;-69
2021/07/04 05:31:20;;;;;;;;;;;;;;;;;;5097974;28;19911;-65
2021/07/04 05:33:45;;;;;;;;;;;;;;;;;;5104187;27;20285;-71
2021/07/04 05:36:11;;;;;;;;;;;;;;;;;;5113418;27;19912;-67
2021/07/04 05:38:40;;;;;;;;;;;;;;;;;;5114183;27;19998;-68
2021/07/04 05:41:06;;;;;;;;;;;;;;;;;;5113968;27;19915;-68
2021/07/04 05:43:32;;;;;;;;;;;;;;;;;;5114090;27;19911;-69
2021/07/04 05:45:58;;;;;;;;;;;;;;;;;;5113191;27;20051;-68
2021/07/04 05:48:24;;;;;;;;;;;;;;;;;;5109067;28;20351;-67
2021/07/04 05:50:49;;;;;;;;;;;;;;;;;;5117013;27;19908;-68
2021/07/04 05:53:16;;;;;;;;;;;;;;;;;;5116329;27;20361;-68
2021/07/04 05:55:42;;;;;;;;;;;;;;;;;;5111467;27;19911;-68
2021/07/04 05:58:08;;;;;;;;;;;;;;;;;;5113598;27;19971;-67
2021/07/04 06:00:35;;;;;;;;;;;;;;;;;;5091674;28;20737;-67
2021/07/04 06:03:01;;;;;;;;;;;;;;;;;;5111245;27;20338;-70
2021/07/04 06:05:29;;;;;;;;;;;;;;;;;;5092674;28;19915;-68
2021/07/04 06:07:55;;;;;;;;;;;;;;;;;;5104857;27;19942;-68
2021/07/04 06:10:21;;;;;;;;;;;;;;;;;;5109541;27;19928;-68
2021/07/04 06:12:47;;;;;;;;;;;;;;;;;;5109601;27;19949;-68
2021/07/04 06:15:13;;;;;;;;;;;;;;;;;;5109966;28;20481;-68
2021/07/04 06:17:38;;;;;;;;;;;;;;;;;;5112856;27;19915;-68
2021/07/04 06:20:04;;;;;;;;;;;;;;;;;;5112244;28;19964;-69
2021/07/04 06:22:30;;;;;;;;;;;;;;;;;;5109836;28;19957;-66
2021/07/04 06:24:56;;;;;;;;;;;;;;;;;;5110691;28;19930;-65
2021/07/04 06:27:22;;;;;;;;;;;;;;;;;;5108434;28;19930;-65
2021/07/04 06:29:48;;;;;;;;;;;;;;;;;;5114645;28;19965;-65
2021/07/04 06:32:14;;;;;;;;;;;;;;;;;;5112265;28;19926;-65
2021/07/04 06:34:39;;;;;;;;;;;;;;;;;;5109428;28;20500;-65
2021/07/04 06:37:05;;;;;;;;;;;;;;;;;;5101568;28;19911;-65
2021/07/04 06:39:31;;;;;;;;;;;;;;;;;;5123314;28;19912;-64
2021/07/04 06:41:57;;;;;;;;;;;;;;;;;;5114657;28;19908;-66
2021/07/04 06:44:23;;;;;;;;;;;;;;;;;;5112929;28;19955;-66
2021/07/04 06:46:49;;;;;;;;;;;;;;;;;;5098704;28;19924;-65
2021/07/04 06:49:15;;;;;;;;;;;;;;;;;;5111241;28;19911;-66
2021/07/04 06:51:41;;;;;;;;;;;;;;;;;;5108283;28;19912;-66
2021/07/04 06:54:06;;;;;;;;;;;;;;;;;;5126068;28;20317;-65
2021/07/04 06:56:32;;;;;;;;;;;;;;;;;;5101323;28;19914;-65
2021/07/04 06:58:58;;;;;;;;;;;;;;;;;;5110333;28;19918;-65
2021/07/04 07:01:24;;;;;;;;;;;;;;;;;;5112047;28;19923;-68
2021/07/04 07:03:50;;;;;;;;;;;;;;;;;;5110084;28;19949;-67
2021/07/04 07:06:16;;;;;;;;;;;;;;;;;;5110303;28;19939;-67
2021/07/04 07:08:42;;;;;;;;;;;;;;;;;;5118495;27;19935;-67
2021/07/04 07:11:08;;;;;;;;;;;;;;;;;;5098603;28;19924;-67
2021/07/04 07:13:34;;;;;;;;;;;;;;;;;;5116781;27;19923;-63
2021/07/04 07:16:00;;;;;;;;;;;;;;;;;;5116242;27;20439;-64
2021/07/04 07:18:26;;;;;;;;;;;;;;;;;;5094699;28;19911;-64
2021/07/04 07:20:52;;;;;;;;;;;;;;;;;;5117404;27;20359;-63
2021/07/04 07:23:18;;;;;;;;;;;;;;;;;;5115140;27;19912;-63
2021/07/04 07:25:44;;;;;;;;;;;;;;;;;;5114778;27;19920;-63
2021/07/04 07:28:10;;;;;;;;;;;;;;;;;;5116068;27;19911;-64
2021/07/04 07:30:36;;;;;;;;;;;;;;;;;;5113293;27;20286;-64
2021/07/04 07:33:01;;;;;;;;;;;;;;;;;;5099818;28;19907;-64
2021/07/04 07:35:30;;;;;;;;;;;;;;;;;;5116980;27;19908;-64
2021/07/04 07:37:59;;;;;;;;;;;;;;;;;;5115421;27;19923;-64
2021/07/04 07:40:25;;;;;;;;;;;;;;;;;;5116604;27;19919;-64
2021/07/04 07:42:51;;;;;;;;;;;;;;;;;;5096959;27;19911;-64
2021/07/04 07:45:17;;;;;;;;;;;;;;;;;;5114518;27;21505;-64
2021/07/04 07:47:43;;;;;;;;;;;;;;;;;;5117663;27;20014;-64
2021/07/04 07:50:09;;;;;;;;;;;;;;;;;;5116101;27;19912;-64
2021/07/04 07:52:35;;;;;;;;;;;;;;;;;;5116165;27;20298;-64
2021/07/04 07:55:00;;;;;;;;;;;;;;;;;;5116312;27;19919;-64
2021/07/04 07:57:26;;;;;;;;;;;;;;;;;;5111800;28;20003;-65
2021/07/04 07:59:52;;;;;;;;;;;;;;;;;;5118512;27;19908;-64
2021/07/04 08:02:18;;;;;;;;;;;;;;;;;;5116078;27;19919;-64
2021/07/04 08:04:44;;;;;;;;;;;;;;;;;;5116020;27;19941;-64
2021/07/04 08:07:10;;;;;;;;;;;;;;;;;;5115710;27;19934;-64
2021/07/04 08:09:36;;;;;;;;;;;;;;;;;;5093950;27;19916;-64
2021/07/04 08:12:02;;;;;;;;;;;;;;;;;;5116915;27;20298;-64
2021/07/04 08:14:28;;;;;;;;;;;;;;;;;;5116678;27;19954;-64
2021/07/04 08:16:54;;;;;;;;;;;;;;;;;;5115756;27;20450;-64
2021/07/04 08:19:20;;;;;;;;;;;;;;;;;;5097505;27;20002;-64
2021/07/04 08:21:46;;;;;;;;;;;;;;;;;;5113013;27;19973;-64
2021/07/04 08:24:12;;;;;;;;;;;;;;;;;;5115026;27;19911;-64
2021/07/04 08:26:37;;;;;;;;;;;;;;;;;;5116835;27;20331;-64
2021/07/04 08:29:03;;;;;;;;;;;;;;;;;;5116319;27;19912;-64
2021/07/04 08:31:29;;;;;;;;;;;;;;;;;;5115145;27;19919;-64
2021/07/04 08:33:55;;;;;;;;;;;;;;;;;;5114823;27;19917;-64
2021/07/04 08:36:21;;;;;;;;;;;;;;;;;;5112391;27;19934;-64
2021/07/04 08:38:47;;;;;;;;;;;;;;;;;;5100104;28;19915;-64
2021/07/04 08:41:13;;;;;;;;;;;;;;;;;;5115406;27;20000;-64
2021/07/04 08:43:39;;;;;;;;;;;;;;;;;;5115342;27;20266;-64
2021/07/04 08:46:05;;;;;;;;;;;;;;;;;;5115126;27;20359;-64
2021/07/04 08:48:31;;;;;;;;;;;;;;;;;;5111225;28;20325;-64
2021/07/04 08:50:57;;;;;;;;;;;;;;;;;;5117711;27;19908;-64
2021/07/04 08:53:22;;;;;;;;;;;;;;;;;;5116864;27;20006;-64
2021/07/04 08:55:48;;;;;;;;;;;;;;;;;;5114743;27;19922;-64
2021/07/04 08:58:14;;;;;;;;;;;;;;;;;;5115079;27;20294;-64
2021/07/04 09:00:40;;;;;;;;;;;;;;;;;;5111900;27;19966;-64
2021/07/04 09:03:06;;;;;;;;;;;;;;;;;;5115283;27;20427;-64
2021/07/04 09:05:32;;;;;;;;;;;;;;;;;;5115753;27;19922;-64
2021/07/04 09:07:58;;;;;;;;;;;;;;;;;;5115107;27;20418;-64
2021/07/04 09:10:25;;;;;;;;;;;;;;;;;;5114089;27;19977;-64
2021/07/04 09:12:51;;;;;;;;;;;;;;;;;;5113574;27;19911;-64
2021/07/04 09:15:17;;;;;;;;;;;;;;;;;;5112646;27;19919;-64
2021/07/04 09:17:44;;;;;;;;;;;;;;;;;;5116727;27;20278;-65
2021/07/04 09:20:11;;;;;;;;;;;;;;;;;;5114832;27;20424;-64
2021/07/04 09:22:40;;;;;;;;;;;;;;;;;;5114320;27;19919;-64
2021/07/04 09:25:06;;;;;;;;;;;;;;;;;;5113997;27;20271;-64
2021/07/04 09:27:32;;;;;;;;;;;;;;;;;;5110505;27;19927;-64
2021/07/04 09:29:57;;;;;;;;;;;;;;;;;;5116670;27;19908;-64
2021/07/04 09:32:26;;;;;;;;;;;;;;;;;;5116279;27;20328;-64
2021/07/04 09:34:52;;;;;;;;;;;;;;;;;;5113914;27;19919;-64
2021/07/04 09:37:18;;;;;;;;;;;;;;;;;;5114409;27;19918;-64
2021/07/04 09:39:44;;;;;;;;;;;;;;;;;;5111297;27;20390;-64
2021/07/04 09:42:10;;;;;;;;;;;;;;;;;;5114370;27;19907;-63
2021/07/04 09:44:36;;;;;;;;;;;;;;;;;;5115382;27;19943;-64
2021/07/04 09:47:02;;;;;;;;;;;;;;;;;;5114032;27;19950;-64
2021/07/04 09:49:28;;;;;;;;;;;;;;;;;;5113721;27;20440;-64
2021/07/04 09:51:53;;;;;;;;;;;;;;;;;;5113241;27;19915;-64
2021/07/04 09:54:19;;;;;;;;;;;;;;;;;;5111705;27;19990;-64
2021/07/04 09:56:45;;;;;;;;;;;;;;;;;;5116416;27;19930;-64
2021/07/04 09:59:11;;;;;;;;;;;;;;;;;;5113990;27;19918;-66
2021/07/04 10:01:37;;;;;;;;;;;;;;;;;;5113397;27;20008;-64
2021/07/04 10:04:04;;;;;;;;;;;;;;;;;;5113791;28;19941;-64
2021/07/04 10:06:30;;;;;;;;;;;;;;;;;;5108853;28;19919;-64
2021/07/04 10:08:56;;;;;;;;;;;;;;;;;;5116970;28;20456;-63
2021/07/04 10:11:22;;;;;;;;;;;;;;;;;;5113316;28;19920;-63
2021/07/04 10:13:49;;;;;;;;;;;;;;;;;;5113641;27;19925;-63
2021/07/04 10:16:15;;;;;;;;;;;;;;;;;;5113169;27;19968;-63
2021/07/04 10:18:41;;;;;;;;;;;;;;;;;;5111147;28;19919;-63
2021/07/04 10:21:07;;;;;;;;;;;;;;;;;;5114025;28;20370;-64
2021/07/04 10:23:33;;;;;;;;;;;;;;;;;;5114434;28;19912;-63
2021/07/04 10:25:59;;;;;;;;;;;;;;;;;;5113915;28;19968;-63
2021/07/04 10:28:25;;;;;;;;;;;;;;;;;;5113746;28;19912;-64
2021/07/04 10:30:51;;;;;;;;;;;;;;;;;;5112056;28;19914;-64
2021/07/04 10:33:19;;;;;;;;;;;;;;;;;;5111890;28;19938;-64
2021/07/04 10:35:45;;;;;;;;;;;;;;;;;;5098299;28;20018;-64
2021/07/04 10:38:10;;;;;;;;;;;;;;;;;;5113570;28;19999;-64
2021/07/04 10:40:36;;;;;;;;;;;;;;;;;;5116590;27;19912;-64
2021/07/04 10:43:02;;;;;;;;;;;;;;;;;;5128892;27;20285;-64
2021/07/04 10:45:28;;;;;;;;;;;;;;;;;;5112688;28;19919;-64
2021/07/04 10:47:54;;;;;;;;;;;;;;;;;;5120919;27;20065;-64
2021/07/04 10:50:20;;;;;;;;;;;;;;;;;;5117550;27;19919;-64
2021/07/04 10:52:53;;;;;;;;;;;;;;;;;;5117514;27;19918;-64
2021/07/04 10:55:18;;;;;;;;;;;;;;;;;;5117136;27;19914;-64
2021/07/04 10:57:44;;;;;;;;;;;;;;;;;;5114620;27;19964;-64
2021/07/04 11:00:10;;;;;;;;;;;;;;;;;;5117105;27;19908;-64
2021/07/04 11:02:36;;;;;;;;;;;;;;;;;;5118634;27;19911;-64
2021/07/04 11:05:02;;;;;;;;;;;;;;;;;;5117116;27;19916;-64
2021/07/04 11:07:28;;;;;;;;;;;;;;;;;;5116670;27;20313;-63
2021/07/04 11:09:57;;;;;;;;;;;;;;;;;;5116089;27;19963;-64
2021/07/04 11:12:23;;;;;;;;;;;;;;;;;;5095100;28;20233;-64
2021/07/04 11:14:48;;;;;;;;;;;;;;;;;;5119453;27;19961;-64
2021/07/04 11:17:14;;;;;;;;;;;;;;;;;;5117165;27;19923;-64
2021/07/04 11:19:42;;;;;;;;;;;;;;;;;;5116177;27;20361;-64
2021/07/04 11:22:08;;;;;;;;;;;;;;;;;;5116139;27;19947;-64
2021/07/04 11:24:34;;;;;;;;;;;;;;;;;;5113079;27;19913;-64
2021/07/04 11:27:00;;;;;;;;;;;;;;;;;;5119072;27;20287;-64
2021/07/04 11:29:26;;;;;;;;;;;;;;;;;;5116859;27;19912;-64
2021/07/04 11:31:51;;;;;;;;;;;;;;;;;;5116291;27;19918;-64
2021/07/04 11:34:17;;;;;;;;;;;;;;;;;;5116307;27;19919;-64
2021/07/04 11:36:43;;;;;;;;;;;;;;;;;;5114145;27;19913;-64
2021/07/04 11:39:09;;;;;;;;;;;;;;;;;;5116917;27;19908;-64
2021/07/04 11:41:35;;;;;;;;;;;;;;;;;;5117428;27;20290;-64
2021/07/04 11:44:01;;;;;;;;;;;;;;;;;;5115988;27;19912;-64
2021/07/04 11:46:27;;;;;;;;;;;;;;;;;;5116410;27;19920;-64
2021/07/04 11:48:53;;;;;;;;;;;;;;;;;;5115432;27;20377;-64
2021/07/04 11:51:19;;;;;;;;;;;;;;;;;;5114113;27;20002;-64
2021/07/04 11:53:45;;;;;;;;;;;;;;;;;;5117418;28;20050;-64
2021/07/04 11:56:11;;;;;;;;;;;;;;;;;;5116344;27;19912;-64
2021/07/04 11:58:36;;;;;;;;;;;;;;;;;;5116043;27;20484;-64
2021/07/04 12:01:03;;;;;;;;;;;;;;;;;;5116178;27;19911;-64
2021/07/04 12:03:29;;;;;;;;;;;;;;;;;;5111566;28;20371;-64
2021/07/04 12:05:55;;;;;;;;;;;;;;;;;;5119081;27;19926;-64
2021/07/04 12:08:20;;;;;;;;;;;;;;;;;;5097318;28;19923;-64
2021/07/04 12:10:47;;;;;;;;;;;;;;;;;;5115725;27;19920;-64
2021/07/04 12:13:13;;;;;;;;;;;;;;;;;;5115693;27;19911;-64
2021/07/04 12:15:39;;;;;;;;;;;;;;;;;;5112556;27;19912;-64
2021/07/04 12:18:04;;;;;;;;;;;;;;;;;;5116828;27;19912;-64
2021/07/04 12:20:32;;;;;;;;;;;;;;;;;;5118073;27;20328;-63
2021/07/04 12:22:58;;;;;;;;;;;;;;;;;;5115216;27;20243;-63
2021/07/04 12:25:26;;;;;;;;;;;;;;;;;;5097206;28;19919;-63
2021/07/04 12:27:51;;;;;;;;;;;;;;;;;;5114155;27;20353;-63
2021/07/04 12:30:17;;;;;;;;;;;;;;;;;;5095572;28;19911;-63
2021/07/04 12:32:43;;;;;;;;;;;;;;;;;;5117222;27;19950;-64
2021/07/04 12:35:09;;;;;;;;;;;;;;;;;;5115271;27;20372;-63
2021/07/04 12:37:35;;;;;;;;;;;;;;;;;;5115437;27;19915;-63
2021/07/04 12:40:01;;;;;;;;;;;;;;;;;;5115404;27;19994;-63
2021/07/04 12:42:27;;;;;;;;;;;;;;;;;;5110556;28;20298;-63
2021/07/04 12:44:53;;;;;;;;;;;;;;;;;;5118188;27;19953;-63
2021/07/04 12:47:21;;;;;;;;;;;;;;;;;;5115137;27;19916;-63
2021/07/04 12:49:47;;;;;;;;;;;;;;;;;;5115020;27;19916;-64
2021/07/04 12:52:12;;;;;;;;;;;;;;;;;;5115144;27;20014;-64
2021/07/04 12:54:38;;;;;;;;;;;;;;;;;;5111144;27;19981;-65
2021/07/04 12:57:07;;;;;;;;;;;;;;;;;;5116066;27;19915;-63
2021/07/04 12:59:33;;;;;;;;;;;;;;;;;;5117735;27;19976;-63
2021/07/04 13:01:59;;;;;;;;;;;;;;;;;;5115207;27;20462;-63
2021/07/04 13:04:25;;;;;;;;;;;;;;;;;;5113802;28;19916;-65
2021/07/04 13:06:51;;;;;;;;;;;;;;;;;;5113366;27;19974;-64
2021/07/04 13:09:17;;;;;;;;;;;;;;;;;;5112423;27;19997;-65
2021/07/04 13:11:42;;;;;;;;;;;;;;;;;;5116600;27;20384;-65
2021/07/04 13:14:08;;;;;;;;;;;;;;;;;;5114873;27;19914;-65
2021/07/04 13:16:34;;;;;;;;;;;;;;;;;;5114582;27;19922;-64
2021/07/04 13:19:00;;;;;;;;;;;;;;;;;;5113964;27;19908;-67
2021/07/04 13:21:26;;;;;;;;;;;;;;;;;;5094074;28;19915;-65
2021/07/04 13:23:52;;;;;;;;;;;;;;;;;;5117622;27;19946;-64
2021/07/04 13:26:18;;;;;;;;;;;;;;;;;;5095821;28;19939;-64
2021/07/04 13:28:44;;;;;;;;;;;;;;;;;;5114054;27;19957;-64
2021/07/04 13:31:09;;;;;;;;;;;;;;;;;;5114113;27;20321;-65
2021/07/04 13:33:35;;;;;;;;;;;;;;;;;;5110606;27;19926;-64
2021/07/04 13:36:01;;;;;;;;;;;;;;;;;;5115899;27;19952;-64
2021/07/04 13:38:27;;;;;;;;;;;;;;;;;;5114757;27;19927;-64
2021/07/04 13:40:53;;;;;;;;;;;;;;;;;;5114355;27;19908;-64
2021/07/04 13:43:19;;;;;;;;;;;;;;;;;;5114326;27;19911;-65
2021/07/04 13:45:46;;;;;;;;;;;;;;;;;;5111121;27;19927;-65
2021/07/04 13:48:12;;;;;;;;;;;;;;;;;;5113914;27;19918;-65
2021/07/04 13:50:38;;;;;;;;;;;;;;;;;;5115250;28;19911;-65
2021/07/04 13:53:04;;;;;;;;;;;;;;;;;;5114416;27;19908;-65
2021/07/04 13:55:29;;;;;;;;;;;;;;;;;;5113101;27;19919;-65
2021/07/04 13:57:55;;;;;;;;;;;;;;;;;;5113378;27;20330;-64
2021/07/04 14:00:21;;;;;;;;;;;;;;;;;;5111159;28;19920;-64
2021/07/04 14:02:47;;;;;;;;;;;;;;;;;;5116494;27;19948;-64
2021/07/04 14:05:13;;;;;;;;;;;;;;;;;;5094984;28;19934;-64
2021/07/04 14:07:39;;;;;;;;;;;;;;;;;;5112053;27;19919;-64
2021/07/04 14:10:05;;;;;;;;;;;;;;;;;;5113331;27;19930;-64
2021/07/04 14:12:31;;;;;;;;;;;;;;;;;;5109457;28;19912;-64
2021/07/04 14:14:57;;;;;;;;;;;;;;;;;;5116460;27;19908;-64
2021/07/04 14:17:23;;;;;;;;;;;;;;;;;;5112591;27;19916;-64
2021/07/04 14:19:50;;;;;;;;;;;;;;;;;;5113585;28;19911;-64
2021/07/04 14:22:16;;;;;;;;;;;;;;;;;;5113777;28;19911;-64
2021/07/04 14:24:42;;;;;;;;;;;;;;;;;;5110824;28;20006;-64
2021/07/04 14:27:08;;;;;;;;;;;;;;;;;;5113361;28;20375;-64
2021/07/04 14:29:34;;;;;;;;;;;;;;;;;;5114546;28;19908;-64
2021/07/04 14:32:00;;;;;;;;;;;;;;;;;;5113167;28;19911;-64
2021/07/04 14:34:26;;;;;;;;;;;;;;;;;;5113437;28;20002;-64
2021/07/04 14:36:52;;;;;;;;;;;;;;;;;;5111755;28;20385;-64
2021/07/04 14:39:17;;;;;;;;;;;;;;;;;;5110323;28;19953;-64
2021/07/04 14:41:43;;;;;;;;;;;;;;;;;;5113579;28;19990;-63
2021/07/04 14:44:09;;;;;;;;;;;;;;;;;;5109405;28;19912;-65
2021/07/04 14:46:35;;;;;;;;;;;;;;;;;;5109500;28;19967;-65
2021/07/04 14:49:01;;;;;;;;;;;;;;;;;;5101864;28;19912;-67
2021/07/04 14:51:27;;;;;;;;;;;;;;;;;;5089083;28;19935;-66
2021/07/04 14:53:53;;;;;;;;;;;;;;;;;;5116944;28;20014;-63
2021/07/04 14:56:23;;;;;;;;;;;;;;;;;;5108237;28;19955;-65
2021/07/04 14:58:49;;;;;;;;;;;;;;;;;;5107160;28;19927;-68
2021/07/04 15:01:15;;;;;;;;;;;;;;;;;;5111948;28;19922;-68
2021/07/04 15:03:41;;;;;;;;;;;;;;;;;;5108903;28;19912;-65
2021/07/04 15:06:07;;;;;;;;;;;;;;;;;;5093218;28;19916;-67
2021/07/04 15:08:33;;;;;;;;;;;;;;;;;;5095035;28;19908;-67
2021/07/04 15:10:59;;;;;;;;;;;;;;;;;;5094960;28;19965;-68
2021/07/04 15:13:24;;;;;;;;;;;;;;;;;;5096350;28;19958;-68
2021/07/04 15:15:50;;;;;;;;;;;;;;;;;;5095084;28;19918;-67
2021/07/04 15:18:16;;;;;;;;;;;;;;;;;;5109873;28;20278;-66
2021/07/04 15:20:42;;;;;;;;;;;;;;;;;;5095065;28;19908;-66
2021/07/04 15:23:08;;;;;;;;;;;;;;;;;;5100450;28;20384;-68
2021/07/04 15:25:34;;;;;;;;;;;;;;;;;;5097001;28;19920;-68
2021/07/04 15:28:00;;;;;;;;;;;;;;;;;;5097815;28;19922;-68
2021/07/04 15:30:26;;;;;;;;;;;;;;;;;;5096192;28;19923;-68
2021/07/04 15:32:52;;;;;;;;;;;;;;;;;;5099659;28;19919;-68
2021/07/04 15:35:18;;;;;;;;;;;;;;;;;;5100236;28;19912;-68
2021/07/04 15:37:44;;;;;;;;;;;;;;;;;;5097095;28;19915;-66
2021/07/04 15:40:10;;;;;;;;;;;;;;;;;;5090479;28;19918;-68
2021/07/04 15:42:36;;;;;;;;;;;;;;;;;;5096699;28;19976;-68
2021/07/04 15:45:01;;;;;;;;;;;;;;;;;;5098130;28;20517;-68
2021/07/04 15:47:27;;;;;;;;;;;;;;;;;;5104283;28;20332;-68
2021/07/04 15:49:53;;;;;;;;;;;;;;;;;;5102665;28;19919;-68
2021/07/04 15:52:19;;;;;;;;;;;;;;;;;;5107366;27;20286;-67
2021/07/04 15:54:45;;;;;;;;;;;;;;;;;;5113869;27;19952;-68
2021/07/04 15:57:14;;;;;;;;;;;;;;;;;;5116072;27;20317;-67
2021/07/04 15:59:40;;;;;;;;;;;;;;;;;;5117693;27;19911;-67
2021/07/04 16:02:06;;;;;;;;;;;;;;;;;;5116206;27;19912;-68
2021/07/04 16:04:31;;;;;;;;;;;;;;;;;;5115496;27;19942;-67
2021/07/04 16:06:57;;;;;;;;;;;;;;;;;;5115029;27;19972;-67
2021/07/04 16:09:23;;;;;;;;;;;;;;;;;;5112816;27;19934;-68
2021/07/04 16:11:49;;;;;;;;;;;;;;;;;;5118872;27;19908;-68
2021/07/04 16:14:15;;;;;;;;;;;;;;;;;;5115731;27;19920;-68
2021/07/04 16:16:41;;;;;;;;;;;;;;;;;;5116877;27;19911;-68
2021/07/04 16:19:07;;;;;;;;;;;;;;;;;;5115487;27;19912;-68
2021/07/04 16:21:33;;;;;;;;;;;;;;;;;;5111865;27;19977;-68
2021/07/04 16:23:59;;;;;;;;;;;;;;;;;;5118501;27;20355;-69
2021/07/04 16:26:24;;;;;;;;;;;;;;;;;;5116945;27;20034;-67
2021/07/04 16:28:50;;;;;;;;;;;;;;;;;;5116589;27;19994;-67
2021/07/04 16:31:16;;;;;;;;;;;;;;;;;;5115724;27;19962;-67
2021/07/04 16:33:42;;;;;;;;;;;;;;;;;;5112565;27;19919;-67
2021/07/04 16:36:08;;;;;;;;;;;;;;;;;;5115560;27;20279;-69